sensor_id;sensor_type;location;lat;lon;timestamp;temperature;humidity
22680;DHT22;11507;44.858;10.374;2023-05-07T00:00:28;15.50;99.90
22680;DHT22;11507;44.858;10.374;2023-05-07T00:02:54;15.50;99.90
22680;DHT22;11507;44.858;10.374;2023-05-07T00:05:21;15.50;99.90
22680;DHT22;11507;44.858;10.374;2023-05-07T00:07:47;15.60;99.90
22680;DHT22;11507;44.858;10.374;2023-05-07T00:10:13;15.60;99.90
22680;DHT22;11507;44.858;10.374;2023-05-07T00:15:05;15.60;99.90
22680;DHT22;11507;44.858;10.374;2023-05-07T00:17:33;15.70;99.90
22680;DHT22;11507;44.858;10.374;2023-05-07T00:20:00;15.70;99.90
22680;DHT22;11507;44.858;10.374;2023-05-07T00:22:26;15.70;99.90
22680;DHT22;11507;44.858;10.374;2023-05-07T00:24:52;15.70;99.90
22680;DHT22;11507;44.858;10.374;2023-05-07T00:27:21;15.60;99.90
22680;DHT22;11507;44.858;10.374;2023-05-07T00:29:47;15.60;99.90
22680;DHT22;11507;44.858;10.374;2023-05-07T00:32:13;15.50;99.90
22680;DHT22;11507;44.858;10.374;2023-05-07T00:34:38;15.40;99.90
22680;DHT22;11507;44.858;10.374;2023-05-07T00:37:05;15.40;99.90
22680;DHT22;11507;44.858;10.374;2023-05-07T00:39:33;15.30;99.90
22680;DHT22;11507;44.858;10.374;2023-05-07T00:41:59;15.20;99.90
22680;DHT22;11507;44.858;10.374;2023-05-07T00:44:26;15.20;99.90
22680;DHT22;11507;44.858;10.374;2023-05-07T00:46:53;15.10;99.90
22680;DHT22;11507;44.858;10.374;2023-05-07T00:49:19;15.00;99.90
22680;DHT22;11507;44.858;10.374;2023-05-07T00:51:46;14.90;99.90
22680;DHT22;11507;44.858;10.374;2023-05-07T00:54:13;14.90;99.90
22680;DHT22;11507;44.858;10.374;2023-05-07T00:56:40;14.90;99.90
22680;DHT22;11507;44.858;10.374;2023-05-07T00:59:08;14.90;99.90
22680;DHT22;11507;44.858;10.374;2023-05-07T01:01:34;14.90;99.90
22680;DHT22;11507;44.858;10.374;2023-05-07T01:04:00;14.90;99.90
22680;DHT22;11507;44.858;10.374;2023-05-07T01:06:27;14.90;99.90
22680;DHT22;11507;44.858;10.374;2023-05-07T01:08:54;14.80;99.90
22680;DHT22;11507;44.858;10.374;2023-05-07T01:11:22;14.80;99.90
22680;DHT22;11507;44.858;10.374;2023-05-07T01:13:49;14.80;99.90
22680;DHT22;11507;44.858;10.374;2023-05-07T01:16:16;14.70;99.90
22680;DHT22;11507;44.858;10.374;2023-05-07T01:18:44;14.70;99.90
22680;DHT22;11507;44.858;10.374;2023-05-07T01:21:15;14.60;99.90
22680;DHT22;11507;44.858;10.374;2023-05-07T01:23:44;14.60;99.90
22680;DHT22;11507;44.858;10.374;2023-05-07T01:26:10;14.60;99.90
22680;DHT22;11507;44.858;10.374;2023-05-07T01:28:36;14.60;99.90
22680;DHT22;11507;44.858;10.374;2023-05-07T01:31:03;14.60;99.90
22680;DHT22;11507;44.858;10.374;2023-05-07T01:33:33;14.60;99.90
22680;DHT22;11507;44.858;10.374;2023-05-07T01:36:03;14.60;99.90
22680;DHT22;11507;44.858;10.374;2023-05-07T01:38:32;14.60;99.90
22680;DHT22;11507;44.858;10.374;2023-05-07T01:40:58;14.60;99.90
22680;DHT22;11507;44.858;10.374;2023-05-07T01:43:25;14.60;99.90
22680;DHT22;11507;44.858;10.374;2023-05-07T01:45:51;14.60;99.90
22680;DHT22;11507;44.858;10.374;2023-05-07T01:48:18;14.60;99.90
22680;DHT22;11507;44.858;10.374;2023-05-07T01:50:44;14.60;99.90
22680;DHT22;11507;44.858;10.374;2023-05-07T01:53:11;14.60;99.90
22680;DHT22;11507;44.858;10.374;2023-05-07T01:55:37;14.50;99.90
22680;DHT22;11507;44.858;10.374;2023-05-07T01:58:04;14.40;99.90
22680;DHT22;11507;44.858;10.374;2023-05-07T02:00:30;14.30;99.90
22680;DHT22;11507;44.858;10.374;2023-05-07T02:02:57;14.30;99.90
22680;DHT22;11507;44.858;10.374;2023-05-07T02:05:32;14.20;99.90
22680;DHT22;11507;44.858;10.374;2023-05-07T02:08:03;14.10;99.90
22680;DHT22;11507;44.858;10.374;2023-05-07T02:10:30;14.10;99.90
22680;DHT22;11507;44.858;10.374;2023-05-07T02:12:56;14.10;99.90
22680;DHT22;11507;44.858;10.374;2023-05-07T02:15:22;14.00;99.90
22680;DHT22;11507;44.858;10.374;2023-05-07T02:18:18;14.00;99.90
22680;DHT22;11507;44.858;10.374;2023-05-07T02:20:44;14.00;99.90
22680;DHT22;11507;44.858;10.374;2023-05-07T02:23:10;14.10;99.90
22680;DHT22;11507;44.858;10.374;2023-05-07T02:25:36;14.00;99.90
22680;DHT22;11507;44.858;10.374;2023-05-07T02:28:02;14.00;99.90
22680;DHT22;11507;44.858;10.374;2023-05-07T02:30:40;14.00;99.90
22680;DHT22;11507;44.858;10.374;2023-05-07T02:33:07;14.00;99.90
22680;DHT22;11507;44.858;10.374;2023-05-07T02:35:34;14.00;99.90
22680;DHT22;11507;44.858;10.374;2023-05-07T02:38:00;13.90;99.90
22680;DHT22;11507;44.858;10.374;2023-05-07T02:40:26;13.90;99.90
22680;DHT22;11507;44.858;10.374;2023-05-07T02:42:52;14.00;99.90
22680;DHT22;11507;44.858;10.374;2023-05-07T02:45:18;14.00;99.90
22680;DHT22;11507;44.858;10.374;2023-05-07T02:47:45;14.00;99.90
22680;DHT22;11507;44.858;10.374;2023-05-07T02:50:18;13.90;99.90
22680;DHT22;11507;44.858;10.374;2023-05-07T02:52:44;13.90;99.90
22680;DHT22;11507;44.858;10.374;2023-05-07T02:55:09;13.90;99.90
22680;DHT22;11507;44.858;10.374;2023-05-07T02:57:36;14.00;99.90
22680;DHT22;11507;44.858;10.374;2023-05-07T03:00:13;13.90;99.90
22680;DHT22;11507;44.858;10.374;2023-05-07T03:02:44;13.90;99.90
22680;DHT22;11507;44.858;10.374;2023-05-07T03:05:11;13.90;99.90
22680;DHT22;11507;44.858;10.374;2023-05-07T03:07:38;13.80;99.90
22680;DHT22;11507;44.858;10.374;2023-05-07T03:10:04;13.80;99.90
22680;DHT22;11507;44.858;10.374;2023-05-07T03:12:31;13.80;99.90
22680;DHT22;11507;44.858;10.374;2023-05-07T03:14:59;13.80;99.90
22680;DHT22;11507;44.858;10.374;2023-05-07T03:17:25;13.70;99.90
22680;DHT22;11507;44.858;10.374;2023-05-07T03:19:53;13.80;99.90
22680;DHT22;11507;44.858;10.374;2023-05-07T03:22:21;13.70;99.90
22680;DHT22;11507;44.858;10.374;2023-05-07T03:24:47;13.70;99.90
22680;DHT22;11507;44.858;10.374;2023-05-07T03:27:14;13.70;99.90
22680;DHT22;11507;44.858;10.374;2023-05-07T03:29:41;13.70;99.90
22680;DHT22;11507;44.858;10.374;2023-05-07T03:32:08;13.70;99.90
22680;DHT22;11507;44.858;10.374;2023-05-07T03:34:35;13.70;99.90
22680;DHT22;11507;44.858;10.374;2023-05-07T03:37:07;13.70;99.90
22680;DHT22;11507;44.858;10.374;2023-05-07T03:39:33;13.70;99.90
22680;DHT22;11507;44.858;10.374;2023-05-07T03:42:00;13.60;99.90
22680;DHT22;11507;44.858;10.374;2023-05-07T03:44:28;13.50;99.90
22680;DHT22;11507;44.858;10.374;2023-05-07T03:46:54;13.50;99.90
22680;DHT22;11507;44.858;10.374;2023-05-07T03:49:21;13.40;99.90
22680;DHT22;11507;44.858;10.374;2023-05-07T03:51:47;13.30;99.90
22680;DHT22;11507;44.858;10.374;2023-05-07T03:54:13;13.30;99.90
22680;DHT22;11507;44.858;10.374;2023-05-07T03:56:43;13.30;99.90
22680;DHT22;11507;44.858;10.374;2023-05-07T03:59:08;13.20;99.90
22680;DHT22;11507;44.858;10.374;2023-05-07T04:01:35;13.20;99.90
22680;DHT22;11507;44.858;10.374;2023-05-07T04:04:01;13.20;99.90
22680;DHT22;11507;44.858;10.374;2023-05-07T04:06:27;13.20;99.90
22680;DHT22;11507;44.858;10.374;2023-05-07T04:08:55;13.20;99.90
22680;DHT22;11507;44.858;10.374;2023-05-07T04:11:21;13.20;99.90
22680;DHT22;11507;44.858;10.374;2023-05-07T04:13:47;13.10;99.90
22680;DHT22;11507;44.858;10.374;2023-05-07T04:16:15;13.00;99.90
22680;DHT22;11507;44.858;10.374;2023-05-07T04:18:41;13.00;99.90
22680;DHT22;11507;44.858;10.374;2023-05-07T04:21:18;12.80;99.90
22680;DHT22;11507;44.858;10.374;2023-05-07T04:23:47;12.80;99.90
22680;DHT22;11507;44.858;10.374;2023-05-07T04:26:14;12.70;99.90
22680;DHT22;11507;44.858;10.374;2023-05-07T04:28:43;12.80;99.90
22680;DHT22;11507;44.858;10.374;2023-05-07T04:31:09;12.80;99.90
22680;DHT22;11507;44.858;10.374;2023-05-07T04:33:37;12.80;99.90
22680;DHT22;11507;44.858;10.374;2023-05-07T04:36:04;12.80;99.90
22680;DHT22;11507;44.858;10.374;2023-05-07T04:38:34;12.80;99.90
22680;DHT22;11507;44.858;10.374;2023-05-07T04:41:06;12.90;99.90
22680;DHT22;11507;44.858;10.374;2023-05-07T04:43:35;12.90;99.90
22680;DHT22;11507;44.858;10.374;2023-05-07T04:46:01;13.00;99.90
22680;DHT22;11507;44.858;10.374;2023-05-07T04:48:28;13.20;99.90
22680;DHT22;11507;44.858;10.374;2023-05-07T04:50:54;13.40;99.90
22680;DHT22;11507;44.858;10.374;2023-05-07T04:53:21;13.50;99.90
22680;DHT22;11507;44.858;10.374;2023-05-07T04:55:48;13.70;99.90
22680;DHT22;11507;44.858;10.374;2023-05-07T04:58:14;13.80;99.90
22680;DHT22;11507;44.858;10.374;2023-05-07T05:00:42;14.00;99.90
22680;DHT22;11507;44.858;10.374;2023-05-07T05:03:09;14.10;99.90
22680;DHT22;11507;44.858;10.374;2023-05-07T05:05:37;14.30;99.90
22680;DHT22;11507;44.858;10.374;2023-05-07T05:08:04;14.40;99.90
22680;DHT22;11507;44.858;10.374;2023-05-07T05:10:30;14.40;99.90
22680;DHT22;11507;44.858;10.374;2023-05-07T05:13:00;14.60;99.90
22680;DHT22;11507;44.858;10.374;2023-05-07T05:15:27;14.60;99.90
22680;DHT22;11507;44.858;10.374;2023-05-07T05:17:55;14.70;99.90
22680;DHT22;11507;44.858;10.374;2023-05-07T05:20:21;14.80;99.90
22680;DHT22;11507;44.858;10.374;2023-05-07T05:22:48;14.90;99.90
22680;DHT22;11507;44.858;10.374;2023-05-07T05:25:14;14.90;99.90
22680;DHT22;11507;44.858;10.374;2023-05-07T05:27:41;15.00;99.90
22680;DHT22;11507;44.858;10.374;2023-05-07T05:30:14;15.10;99.90
22680;DHT22;11507;44.858;10.374;2023-05-07T05:32:44;15.10;99.90
22680;DHT22;11507;44.858;10.374;2023-05-07T05:35:12;15.20;99.90
22680;DHT22;11507;44.858;10.374;2023-05-07T05:37:39;15.30;99.90
22680;DHT22;11507;44.858;10.374;2023-05-07T05:40:10;15.40;99.90
22680;DHT22;11507;44.858;10.374;2023-05-07T05:42:36;15.50;99.90
22680;DHT22;11507;44.858;10.374;2023-05-07T05:45:03;15.60;99.90
22680;DHT22;11507;44.858;10.374;2023-05-07T05:47:31;15.70;99.90
22680;DHT22;11507;44.858;10.374;2023-05-07T05:49:57;15.90;99.90
22680;DHT22;11507;44.858;10.374;2023-05-07T05:52:23;16.00;99.90
22680;DHT22;11507;44.858;10.374;2023-05-07T05:54:55;16.20;99.90
22680;DHT22;11507;44.858;10.374;2023-05-07T05:57:22;16.40;99.90
22680;DHT22;11507;44.858;10.374;2023-05-07T05:59:50;16.50;99.90
22680;DHT22;11507;44.858;10.374;2023-05-07T06:02:16;16.70;99.90
22680;DHT22;11507;44.858;10.374;2023-05-07T06:04:42;16.90;99.90
22680;DHT22;11507;44.858;10.374;2023-05-07T06:07:12;17.00;99.90
22680;DHT22;11507;44.858;10.374;2023-05-07T06:09:38;17.20;99.90
22680;DHT22;11507;44.858;10.374;2023-05-07T06:12:06;17.40;99.90
22680;DHT22;11507;44.858;10.374;2023-05-07T06:14:33;17.60;99.90
22680;DHT22;11507;44.858;10.374;2023-05-07T06:16:59;17.70;99.90
22680;DHT22;11507;44.858;10.374;2023-05-07T06:19:26;17.80;99.90
22680;DHT22;11507;44.858;10.374;2023-05-07T06:21:55;18.00;99.90
22680;DHT22;11507;44.858;10.374;2023-05-07T06:24:26;18.30;99.90
22680;DHT22;11507;44.858;10.374;2023-05-07T06:26:52;18.50;99.90
22680;DHT22;11507;44.858;10.374;2023-05-07T06:29:18;18.50;99.90
22680;DHT22;11507;44.858;10.374;2023-05-07T06:31:45;18.60;99.90
22680;DHT22;11507;44.858;10.374;2023-05-07T06:34:12;18.70;99.90
22680;DHT22;11507;44.858;10.374;2023-05-07T06:36:41;18.80;99.90
22680;DHT22;11507;44.858;10.374;2023-05-07T06:39:23;18.70;99.90
22680;DHT22;11507;44.858;10.374;2023-05-07T06:41:51;18.70;99.90
22680;DHT22;11507;44.858;10.374;2023-05-07T06:44:24;18.60;99.90
22680;DHT22;11507;44.858;10.374;2023-05-07T06:47:10;18.70;99.90
22680;DHT22;11507;44.858;10.374;2023-05-07T06:49:38;18.90;99.90
22680;DHT22;11507;44.858;10.374;2023-05-07T06:52:05;19.10;99.90
22680;DHT22;11507;44.858;10.374;2023-05-07T06:54:31;19.10;99.90
22680;DHT22;11507;44.858;10.374;2023-05-07T06:56:57;19.10;99.90
22680;DHT22;11507;44.858;10.374;2023-05-07T06:59:26;19.30;99.90
22680;DHT22;11507;44.858;10.374;2023-05-07T07:01:52;19.40;99.90
22680;DHT22;11507;44.858;10.374;2023-05-07T07:04:18;19.40;99.90
22680;DHT22;11507;44.858;10.374;2023-05-07T07:06:51;19.50;99.90
22680;DHT22;11507;44.858;10.374;2023-05-07T07:09:17;19.70;99.90
22680;DHT22;11507;44.858;10.374;2023-05-07T07:11:43;20.00;99.90
22680;DHT22;11507;44.858;10.374;2023-05-07T07:14:09;20.20;99.90
22680;DHT22;11507;44.858;10.374;2023-05-07T07:16:43;20.30;99.90
22680;DHT22;11507;44.858;10.374;2023-05-07T07:19:09;20.60;99.90
22680;DHT22;11507;44.858;10.374;2023-05-07T07:21:35;20.80;99.90
22680;DHT22;11507;44.858;10.374;2023-05-07T07:24:01;20.90;99.90
22680;DHT22;11507;44.858;10.374;2023-05-07T07:26:27;21.00;99.90
22680;DHT22;11507;44.858;10.374;2023-05-07T07:28:54;21.10;99.90
22680;DHT22;11507;44.858;10.374;2023-05-07T07:31:21;21.30;99.90
22680;DHT22;11507;44.858;10.374;2023-05-07T07:33:49;21.40;99.90
22680;DHT22;11507;44.858;10.374;2023-05-07T07:36:16;21.50;99.90
22680;DHT22;11507;44.858;10.374;2023-05-07T07:38:42;21.60;99.90
22680;DHT22;11507;44.858;10.374;2023-05-07T07:41:08;21.80;99.90
22680;DHT22;11507;44.858;10.374;2023-05-07T07:43:35;22.00;99.90
22680;DHT22;11507;44.858;10.374;2023-05-07T07:46:01;22.00;99.90
22680;DHT22;11507;44.858;10.374;2023-05-07T07:48:28;22.30;99.90
22680;DHT22;11507;44.858;10.374;2023-05-07T07:50:57;22.50;99.90
22680;DHT22;11507;44.858;10.374;2023-05-07T07:53:23;22.50;99.90
22680;DHT22;11507;44.858;10.374;2023-05-07T07:55:49;22.70;99.90
22680;DHT22;11507;44.858;10.374;2023-05-07T07:58:19;22.90;99.90
22680;DHT22;11507;44.858;10.374;2023-05-07T08:00:45;23.10;99.90
22680;DHT22;11507;44.858;10.374;2023-05-07T08:03:13;23.40;99.90
22680;DHT22;11507;44.858;10.374;2023-05-07T08:05:44;23.50;99.90
22680;DHT22;11507;44.858;10.374;2023-05-07T08:08:10;23.60;99.90
22680;DHT22;11507;44.858;10.374;2023-05-07T08:10:38;23.70;99.90
22680;DHT22;11507;44.858;10.374;2023-05-07T08:13:10;23.80;99.90
22680;DHT22;11507;44.858;10.374;2023-05-07T08:15:38;23.90;99.90
22680;DHT22;11507;44.858;10.374;2023-05-07T08:18:05;23.90;99.90
22680;DHT22;11507;44.858;10.374;2023-05-07T08:20:32;24.10;99.90
22680;DHT22;11507;44.858;10.374;2023-05-07T08:22:59;24.20;99.90
22680;DHT22;11507;44.858;10.374;2023-05-07T08:25:26;24.40;99.90
22680;DHT22;11507;44.858;10.374;2023-05-07T08:27:52;24.50;99.90
22680;DHT22;11507;44.858;10.374;2023-05-07T08:30:18;24.60;99.90
22680;DHT22;11507;44.858;10.374;2023-05-07T08:32:45;24.70;99.90
22680;DHT22;11507;44.858;10.374;2023-05-07T08:35:11;24.80;99.90
22680;DHT22;11507;44.858;10.374;2023-05-07T08:37:38;25.00;99.90
22680;DHT22;11507;44.858;10.374;2023-05-07T08:40:05;25.20;99.90
22680;DHT22;11507;44.858;10.374;2023-05-07T08:42:36;25.10;99.90
22680;DHT22;11507;44.858;10.374;2023-05-07T08:45:09;25.20;99.90
22680;DHT22;11507;44.858;10.374;2023-05-07T08:47:43;25.50;99.90
22680;DHT22;11507;44.858;10.374;2023-05-07T08:50:14;25.80;99.90
22680;DHT22;11507;44.858;10.374;2023-05-07T08:52:42;26.00;99.90
22680;DHT22;11507;44.858;10.374;2023-05-07T08:55:10;26.00;99.90
22680;DHT22;11507;44.858;10.374;2023-05-07T08:57:36;26.10;99.90
22680;DHT22;11507;44.858;10.374;2023-05-07T09:00:04;26.30;99.90
22680;DHT22;11507;44.858;10.374;2023-05-07T09:02:37;26.50;99.60
22680;DHT22;11507;44.858;10.374;2023-05-07T09:05:05;26.70;99.30
22680;DHT22;11507;44.858;10.374;2023-05-07T09:07:32;26.80;99.40
22680;DHT22;11507;44.858;10.374;2023-05-07T09:10:02;27.00;99.90
22680;DHT22;11507;44.858;10.374;2023-05-07T09:12:29;27.10;97.80
22680;DHT22;11507;44.858;10.374;2023-05-07T09:14:55;27.30;97.90
22680;DHT22;11507;44.858;10.374;2023-05-07T09:17:21;27.50;98.40
22680;DHT22;11507;44.858;10.374;2023-05-07T09:19:47;27.70;97.50
22680;DHT22;11507;44.858;10.374;2023-05-07T09:22:14;28.10;99.90
22680;DHT22;11507;44.858;10.374;2023-05-07T09:24:51;28.40;97.00
22680;DHT22;11507;44.858;10.374;2023-05-07T09:27:21;28.40;95.50
22680;DHT22;11507;44.858;10.374;2023-05-07T09:29:47;28.50;93.90
22680;DHT22;11507;44.858;10.374;2023-05-07T09:32:15;28.40;95.50
22680;DHT22;11507;44.858;10.374;2023-05-07T09:34:42;28.50;96.50
22680;DHT22;11507;44.858;10.374;2023-05-07T09:37:10;28.90;98.10
22680;DHT22;11507;44.858;10.374;2023-05-07T09:39:42;29.30;97.00
22680;DHT22;11507;44.858;10.374;2023-05-07T09:42:09;29.60;97.90
22680;DHT22;11507;44.858;10.374;2023-05-07T09:44:37;29.80;96.00
22680;DHT22;11507;44.858;10.374;2023-05-07T09:47:07;30.00;96.00
22680;DHT22;11507;44.858;10.374;2023-05-07T09:49:39;30.20;95.70
22680;DHT22;11507;44.858;10.374;2023-05-07T09:52:10;30.20;95.90
22680;DHT22;11507;44.858;10.374;2023-05-07T09:54:45;30.40;95.60
22680;DHT22;11507;44.858;10.374;2023-05-07T09:57:15;30.30;94.20
22680;DHT22;11507;44.858;10.374;2023-05-07T09:59:46;30.40;93.40
22680;DHT22;11507;44.858;10.374;2023-05-07T10:02:17;30.50;93.20
22680;DHT22;11507;44.858;10.374;2023-05-07T10:04:50;30.90;95.00
22680;DHT22;11507;44.858;10.374;2023-05-07T10:07:21;30.90;91.40
22680;DHT22;11507;44.858;10.374;2023-05-07T10:09:51;31.30;92.50
22680;DHT22;11507;44.858;10.374;2023-05-07T10:12:29;31.60;91.80
22680;DHT22;11507;44.858;10.374;2023-05-07T10:14:56;31.60;91.90
22680;DHT22;11507;44.858;10.374;2023-05-07T10:17:23;31.60;92.10
22680;DHT22;11507;44.858;10.374;2023-05-07T10:19:53;31.60;90.60
22680;DHT22;11507;44.858;10.374;2023-05-07T10:22:20;31.70;90.60
22680;DHT22;11507;44.858;10.374;2023-05-07T10:24:49;31.80;91.80
22680;DHT22;11507;44.858;10.374;2023-05-07T10:27:18;31.90;90.70
22680;DHT22;11507;44.858;10.374;2023-05-07T10:33:11;31.70;81.80
22680;DHT22;11507;44.858;10.374;2023-05-07T10:35:45;31.80;88.80
22680;DHT22;11507;44.858;10.374;2023-05-07T10:38:14;32.00;88.70
22680;DHT22;11507;44.858;10.374;2023-05-07T10:40:43;32.30;90.80
22680;DHT22;11507;44.858;10.374;2023-05-07T10:43:09;32.70;90.40
22680;DHT22;11507;44.858;10.374;2023-05-07T10:45:44;33.00;88.90
22680;DHT22;11507;44.858;10.374;2023-05-07T10:48:30;33.40;86.30
22680;DHT22;11507;44.858;10.374;2023-05-07T10:51:21;33.40;80.50
22680;DHT22;11507;44.858;10.374;2023-05-07T10:54:18;33.60;85.00
22680;DHT22;11507;44.858;10.374;2023-05-07T10:56:53;33.70;76.80
22680;DHT22;11507;44.858;10.374;2023-05-07T10:59:31;33.80;86.50
22680;DHT22;11507;44.858;10.374;2023-05-07T11:02:04;34.20;84.80
22680;DHT22;11507;44.858;10.374;2023-05-07T11:04:45;34.30;82.30
22680;DHT22;11507;44.858;10.374;2023-05-07T11:07:35;34.50;85.40
22680;DHT22;11507;44.858;10.374;2023-05-07T11:10:07;34.80;83.80
22680;DHT22;11507;44.858;10.374;2023-05-07T11:13:05;35.00;79.30
22680;DHT22;11507;44.858;10.374;2023-05-07T11:15:47;35.00;79.20
22680;DHT22;11507;44.858;10.374;2023-05-07T11:18:24;35.30;82.40
22680;DHT22;11507;44.858;10.374;2023-05-07T11:20:55;35.70;74.40
22680;DHT22;11507;44.858;10.374;2023-05-07T11:26:41;35.70;80.50
22680;DHT22;11507;44.858;10.374;2023-05-07T11:29:17;35.70;76.00
22680;DHT22;11507;44.858;10.374;2023-05-07T11:31:49;35.80;75.00
22680;DHT22;11507;44.858;10.374;2023-05-07T11:34:15;36.00;73.00
22680;DHT22;11507;44.858;10.374;2023-05-07T11:36:47;36.00;73.70
22680;DHT22;11507;44.858;10.374;2023-05-07T11:39:25;36.00;72.60
22680;DHT22;11507;44.858;10.374;2023-05-07T11:41:52;35.80;71.80
22680;DHT22;11507;44.858;10.374;2023-05-07T11:44:18;35.50;69.00
22680;DHT22;11507;44.858;10.374;2023-05-07T11:46:44;35.60;76.40
22680;DHT22;11507;44.858;10.374;2023-05-07T11:49:10;35.60;68.50
22680;DHT22;11507;44.858;10.374;2023-05-07T11:51:36;35.80;75.70
22680;DHT22;11507;44.858;10.374;2023-05-07T11:54:05;36.00;75.20
22680;DHT22;11507;44.858;10.374;2023-05-07T11:56:35;36.50;68.60
22680;DHT22;11507;44.858;10.374;2023-05-07T11:59:01;36.70;71.00
22680;DHT22;11507;44.858;10.374;2023-05-07T12:01:27;36.70;65.90
22680;DHT22;11507;44.858;10.374;2023-05-07T12:03:54;36.60;67.60
22680;DHT22;11507;44.858;10.374;2023-05-07T12:06:20;36.80;68.50
22680;DHT22;11507;44.858;10.374;2023-05-07T12:08:46;36.90;66.00
22680;DHT22;11507;44.858;10.374;2023-05-07T12:11:16;37.10;65.20
22680;DHT22;11507;44.858;10.374;2023-05-07T12:13:47;37.20;66.10
22680;DHT22;11507;44.858;10.374;2023-05-07T12:16:14;37.50;62.40
22680;DHT22;11507;44.858;10.374;2023-05-07T12:18:40;37.70;60.00
22680;DHT22;11507;44.858;10.374;2023-05-07T12:21:07;37.40;58.20
22680;DHT22;11507;44.858;10.374;2023-05-07T12:23:37;37.40;65.90
22680;DHT22;11507;44.858;10.374;2023-05-07T12:26:05;37.60;62.10
22680;DHT22;11507;44.858;10.374;2023-05-07T12:28:36;37.80;65.10
22680;DHT22;11507;44.858;10.374;2023-05-07T12:31:03;37.90;63.00
22680;DHT22;11507;44.858;10.374;2023-05-07T12:33:29;38.10;62.80
22680;DHT22;11507;44.858;10.374;2023-05-07T12:35:57;38.20;63.20
22680;DHT22;11507;44.858;10.374;2023-05-07T12:38:23;38.40;62.90
22680;DHT22;11507;44.858;10.374;2023-05-07T12:40:50;38.60;60.20
22680;DHT22;11507;44.858;10.374;2023-05-07T12:43:21;39.00;60.10
22680;DHT22;11507;44.858;10.374;2023-05-07T12:45:49;39.10;58.80
22680;DHT22;11507;44.858;10.374;2023-05-07T12:48:15;39.00;61.50
22680;DHT22;11507;44.858;10.374;2023-05-07T12:50:42;39.30;55.90
22680;DHT22;11507;44.858;10.374;2023-05-07T12:53:10;39.00;51.90
22680;DHT22;11507;44.858;10.374;2023-05-07T12:58:08;38.50;57.10
22680;DHT22;11507;44.858;10.374;2023-05-07T13:00:39;38.70;56.40
22680;DHT22;11507;44.858;10.374;2023-05-07T13:03:10;39.00;55.60
22680;DHT22;11507;44.858;10.374;2023-05-07T13:05:37;39.00;55.60
22680;DHT22;11507;44.858;10.374;2023-05-07T13:08:03;39.30;55.20
22680;DHT22;11507;44.858;10.374;2023-05-07T13:10:29;39.50;52.10
22680;DHT22;11507;44.858;10.374;2023-05-07T13:12:55;39.50;52.70
22680;DHT22;11507;44.858;10.374;2023-05-07T13:15:21;39.20;53.10
22680;DHT22;11507;44.858;10.374;2023-05-07T13:17:47;38.50;52.40
22680;DHT22;11507;44.858;10.374;2023-05-07T13:20:13;38.20;54.10
22680;DHT22;11507;44.858;10.374;2023-05-07T13:22:39;37.90;54.50
22680;DHT22;11507;44.858;10.374;2023-05-07T13:25:06;37.80;55.50
22680;DHT22;11507;44.858;10.374;2023-05-07T13:27:32;37.90;56.40
22680;DHT22;11507;44.858;10.374;2023-05-07T13:30:01;38.10;56.40
22680;DHT22;11507;44.858;10.374;2023-05-07T13:32:27;38.40;55.40
22680;DHT22;11507;44.858;10.374;2023-05-07T13:34:52;38.50;53.80
22680;DHT22;11507;44.858;10.374;2023-05-07T13:37:18;38.50;52.20
22680;DHT22;11507;44.858;10.374;2023-05-07T13:39:44;38.50;53.40
22680;DHT22;11507;44.858;10.374;2023-05-07T13:42:11;38.50;53.10
22680;DHT22;11507;44.858;10.374;2023-05-07T13:44:36;38.70;52.10
22680;DHT22;11507;44.858;10.374;2023-05-07T13:47:04;39.00;49.00
22680;DHT22;11507;44.858;10.374;2023-05-07T13:49:30;38.90;51.50
22680;DHT22;11507;44.858;10.374;2023-05-07T13:52:01;38.90;55.40
22680;DHT22;11507;44.858;10.374;2023-05-07T13:54:27;39.00;54.40
22680;DHT22;11507;44.858;10.374;2023-05-07T13:56:52;39.20;52.40
22680;DHT22;11507;44.858;10.374;2023-05-07T13:59:23;39.10;50.00
22680;DHT22;11507;44.858;10.374;2023-05-07T14:01:49;38.70;50.10
22680;DHT22;11507;44.858;10.374;2023-05-07T14:04:15;38.40;50.90
22680;DHT22;11507;44.858;10.374;2023-05-07T14:06:41;38.30;52.30
22680;DHT22;11507;44.858;10.374;2023-05-07T14:09:07;38.30;51.40
22680;DHT22;11507;44.858;10.374;2023-05-07T14:11:33;38.50;51.50
22680;DHT22;11507;44.858;10.374;2023-05-07T14:13:59;38.80;52.50
22680;DHT22;11507;44.858;10.374;2023-05-07T14:16:25;39.00;53.50
22680;DHT22;11507;44.858;10.374;2023-05-07T14:18:50;39.20;50.60
22680;DHT22;11507;44.858;10.374;2023-05-07T14:21:17;38.90;49.90
22680;DHT22;11507;44.858;10.374;2023-05-07T14:23:45;38.80;51.10
22680;DHT22;11507;44.858;10.374;2023-05-07T14:26:12;38.70;54.20
22680;DHT22;11507;44.858;10.374;2023-05-07T14:28:38;38.80;51.90
22680;DHT22;11507;44.858;10.374;2023-05-07T14:31:05;38.80;50.50
22680;DHT22;11507;44.858;10.374;2023-05-07T14:33:32;38.90;51.60
22680;DHT22;11507;44.858;10.374;2023-05-07T14:35:57;38.80;47.80
22680;DHT22;11507;44.858;10.374;2023-05-07T14:38:23;38.50;50.40
22680;DHT22;11507;44.858;10.374;2023-05-07T14:40:53;38.40;49.60
22680;DHT22;11507;44.858;10.374;2023-05-07T14:43:23;38.20;49.10
22680;DHT22;11507;44.858;10.374;2023-05-07T14:45:49;37.40;47.70
22680;DHT22;11507;44.858;10.374;2023-05-07T14:48:15;36.70;53.00
22680;DHT22;11507;44.858;10.374;2023-05-07T14:50:42;36.80;52.80
22680;DHT22;11507;44.858;10.374;2023-05-07T14:53:08;37.00;54.00
22680;DHT22;11507;44.858;10.374;2023-05-07T14:55:34;37.00;51.20
22680;DHT22;11507;44.858;10.374;2023-05-07T14:58:00;36.90;51.90
22680;DHT22;11507;44.858;10.374;2023-05-07T15:00:27;36.10;51.40
22680;DHT22;11507;44.858;10.374;2023-05-07T15:02:56;35.80;55.50
22680;DHT22;11507;44.858;10.374;2023-05-07T15:05:26;35.70;53.80
22680;DHT22;11507;44.858;10.374;2023-05-07T15:07:52;35.80;54.90
22680;DHT22;11507;44.858;10.374;2023-05-07T15:10:17;35.50;54.00
22680;DHT22;11507;44.858;10.374;2023-05-07T15:12:43;35.30;54.60
22680;DHT22;11507;44.858;10.374;2023-05-07T15:15:09;35.00;55.30
22680;DHT22;11507;44.858;10.374;2023-05-07T15:17:35;34.90;56.50
22680;DHT22;11507;44.858;10.374;2023-05-07T15:20:01;35.00;57.60
22680;DHT22;11507;44.858;10.374;2023-05-07T15:22:30;35.30;57.20
22680;DHT22;11507;44.858;10.374;2023-05-07T15:24:56;35.40;56.60
22680;DHT22;11507;44.858;10.374;2023-05-07T15:27:23;35.70;54.50
22680;DHT22;11507;44.858;10.374;2023-05-07T15:29:48;35.60;56.10
22680;DHT22;11507;44.858;10.374;2023-05-07T15:32:14;35.60;55.10